sensor_id;sensor_type;location;lat;lon;timestamp;pressure;altitude;pressure_sealevel;temperature;humidity
39265;BME280;42646;51.910;7.724;2023-01-30T00:01:44;101044.13;;;3.30;100.00
39265;BME280;42646;51.910;7.724;2023-01-30T00:04:13;101051.19;;;3.30;100.00
39265;BME280;42646;51.910;7.724;2023-01-30T00:06:43;101059.06;;;3.30;100.00
39265;BME280;42646;51.910;7.724;2023-01-30T00:09:12;101061.22;;;3.39;100.00
39265;BME280;42646;51.910;7.724;2023-01-30T00:11:41;101057.75;;;3.38;100.00
39265;BME280;42646;51.910;7.724;2023-01-30T00:14:09;101062.06;;;3.39;100.00
39265;BME280;42646;51.910;7.724;2023-01-30T00:16:37;101047.88;;;3.42;100.00
39265;BME280;42646;51.910;7.724;2023-01-30T00:19:05;101037.47;;;3.40;100.00
39265;BME280;42646;51.910;7.724;2023-01-30T00:21:34;101018.47;;;3.51;100.00
39265;BME280;42646;51.910;7.724;2023-01-30T00:24:03;101012.53;;;3.47;100.00
39265;BME280;42646;51.910;7.724;2023-01-30T00:26:30;101013.28;;;3.49;100.00
39265;BME280;42646;51.910;7.724;2023-01-30T00:28:58;101008.94;;;3.48;100.00
39265;BME280;42646;51.910;7.724;2023-01-30T00:31:29;101009.72;;;3.51;100.00
39265;BME280;42646;51.910;7.724;2023-01-30T00:33:57;101002.69;;;3.51;100.00
39265;BME280;42646;51.910;7.724;2023-01-30T00:36:26;101005.22;;;3.53;100.00
39265;BME280;42646;51.910;7.724;2023-01-30T00:38:56;100987.41;;;3.58;100.00
39265;BME280;42646;51.910;7.724;2023-01-30T00:41:24;100990.97;;;3.57;100.00
39265;BME280;42646;51.910;7.724;2023-01-30T00:44:15;100992.34;;;3.64;100.00
39265;BME280;42646;51.910;7.724;2023-01-30T00:47:02;100985.19;;;3.66;100.00
39265;BME280;42646;51.910;7.724;2023-01-30T00:49:35;100979.84;;;3.67;100.00
39265;BME280;42646;51.910;7.724;2023-01-30T00:52:03;100982.47;;;3.67;100.00
39265;BME280;42646;51.910;7.724;2023-01-30T00:54:34;100978.94;;;3.68;100.00
39265;BME280;42646;51.910;7.724;2023-01-30T00:57:01;100970.84;;;3.71;100.00
39265;BME280;42646;51.910;7.724;2023-01-30T00:59:30;100956.16;;;3.67;100.00
39265;BME280;42646;51.910;7.724;2023-01-30T01:01:57;100957.78;;;3.70;100.00
39265;BME280;42646;51.910;7.724;2023-01-30T01:04:26;100945.38;;;3.72;100.00
39265;BME280;42646;51.910;7.724;2023-01-30T01:06:54;100953.34;;;3.86;100.00
39265;BME280;42646;51.910;7.724;2023-01-30T01:09:21;100941.09;;;3.85;100.00
39265;BME280;42646;51.910;7.724;2023-01-30T01:11:52;100928.97;;;3.83;100.00
39265;BME280;42646;51.910;7.724;2023-01-30T01:14:21;100929.81;;;3.83;100.00
39265;BME280;42646;51.910;7.724;2023-01-30T01:16:49;100911.91;;;3.90;100.00
39265;BME280;42646;51.910;7.724;2023-01-30T01:19:17;100909.69;;;3.98;100.00
39265;BME280;42646;51.910;7.724;2023-01-30T01:21:45;100905.31;;;3.97;100.00
39265;BME280;42646;51.910;7.724;2023-01-30T01:24:14;100896.59;;;3.96;100.00
39265;BME280;42646;51.910;7.724;2023-01-30T01:26:43;100887.78;;;3.97;100.00
39265;BME280;42646;51.910;7.724;2023-01-30T01:29:13;100875.63;;;3.95;100.00
39265;BME280;42646;51.910;7.724;2023-01-30T01:31:41;100873.97;;;4.08;100.00
39265;BME280;42646;51.910;7.724;2023-01-30T01:34:11;100862.78;;;4.05;100.00
39265;BME280;42646;51.910;7.724;2023-01-30T01:36:42;100863.00;;;4.16;100.00
39265;BME280;42646;51.910;7.724;2023-01-30T01:39:21;100853.19;;;4.18;100.00
39265;BME280;42646;51.910;7.724;2023-01-30T01:41:49;100863.06;;;4.14;100.00
39265;BME280;42646;51.910;7.724;2023-01-30T01:44:17;100867.78;;;4.23;100.00
39265;BME280;42646;51.910;7.724;2023-01-30T01:46:49;100881.13;;;4.20;100.00
39265;BME280;42646;51.910;7.724;2023-01-30T01:49:21;100865.69;;;4.14;100.00
39265;BME280;42646;51.910;7.724;2023-01-30T01:51:54;100863.06;;;4.14;100.00
39265;BME280;42646;51.910;7.724;2023-01-30T01:54:26;100862.31;;;4.26;100.00
39265;BME280;42646;51.910;7.724;2023-01-30T01:56:59;100868.63;;;4.24;100.00
39265;BME280;42646;51.910;7.724;2023-01-30T01:59:33;100852.34;;;4.17;100.00
39265;BME280;42646;51.910;7.724;2023-01-30T02:02:06;100833.94;;;4.17;100.00
39265;BME280;42646;51.910;7.724;2023-01-30T02:04:37;100836.28;;;4.22;100.00
39265;BME280;42646;51.910;7.724;2023-01-30T02:07:25;100840.88;;;4.33;100.00
39265;BME280;42646;51.910;7.724;2023-01-30T02:09:53;100838.44;;;4.29;100.00
39265;BME280;42646;51.910;7.724;2023-01-30T02:12:21;100848.22;;;4.27;100.00
39265;BME280;42646;51.910;7.724;2023-01-30T02:14:53;100835.91;;;4.28;100.00
39265;BME280;42646;51.910;7.724;2023-01-30T02:17:23;100835.06;;;4.27;100.00
39265;BME280;42646;51.910;7.724;2023-01-30T02:19:58;100830.66;;;4.28;100.00
39265;BME280;42646;51.910;7.724;2023-01-30T02:22:54;100818.88;;;4.34;100.00
39265;BME280;42646;51.910;7.724;2023-01-30T02:25:58;100813.81;;;4.45;100.00
39265;BME280;42646;51.910;7.724;2023-01-30T02:28:50;100816.25;;;4.48;100.00
39265;BME280;42646;51.910;7.724;2023-01-30T02:31:26;100797.72;;;4.35;100.00
39265;BME280;42646;51.910;7.724;2023-01-30T02:34:14;100799.88;;;4.43;100.00
39265;BME280;42646;51.910;7.724;2023-01-30T02:37:00;100788.09;;;4.48;100.00
39265;BME280;42646;51.910;7.724;2023-01-30T02:39:37;100775.88;;;4.47;100.00
39265;BME280;42646;51.910;7.724;2023-01-30T02:42:19;100781.88;;;4.49;100.00
39265;BME280;42646;51.910;7.724;2023-01-30T02:44:55;100762.13;;;4.57;100.00
39265;BME280;42646;51.910;7.724;2023-01-30T02:47:31;100759.97;;;4.63;100.00
39265;BME280;42646;51.910;7.724;2023-01-30T02:50:05;100747.81;;;4.61;100.00
39265;BME280;42646;51.910;7.724;2023-01-30T02:52:35;100748.97;;;4.57;100.00
39265;BME280;42646;51.910;7.724;2023-01-30T02:55:07;100756.78;;;4.58;100.00
39265;BME280;42646;51.910;7.724;2023-01-30T02:57:38;100744.53;;;4.57;100.00
39265;BME280;42646;51.910;7.724;2023-01-30T03:00:10;100730.66;;;4.68;100.00
39265;BME280;42646;51.910;7.724;2023-01-30T03:03:22;100747.06;;;4.59;100.00
39265;BME280;42646;51.910;7.724;2023-01-30T03:06:09;100749.31;;;4.65;100.00
39265;BME280;42646;51.910;7.724;2023-01-30T03:08:52;100748.19;;;4.69;100.00
39265;BME280;42646;51.910;7.724;2023-01-30T03:11:29;100744.66;;;4.68;100.00
39265;BME280;42646;51.910;7.724;2023-01-30T03:14:08;100735.34;;;4.77;100.00
39265;BME280;42646;51.910;7.724;2023-01-30T03:16:39;100738.28;;;4.72;100.00
39265;BME280;42646;51.910;7.724;2023-01-30T03:19:11;100736.09;;;4.79;100.00
39265;BME280;42646;51.910;7.724;2023-01-30T03:21:41;100726.63;;;4.89;100.00
39265;BME280;42646;51.910;7.724;2023-01-30T03:24:11;100719.56;;;4.90;100.00
39265;BME280;42646;51.910;7.724;2023-01-30T03:26:43;100719.06;;;4.97;100.00
39265;BME280;42646;51.910;7.724;2023-01-30T03:29:14;100709.47;;;4.96;100.00
39265;BME280;42646;51.910;7.724;2023-01-30T03:31:42;100706.28;;;4.91;100.00
39265;BME280;42646;51.910;7.724;2023-01-30T03:34:12;100700.31;;;5.02;100.00
39265;BME280;42646;51.910;7.724;2023-01-30T03:36:45;100682.41;;;5.07;100.00
39265;BME280;42646;51.910;7.724;2023-01-30T03:39:14;100700.00;;;5.06;100.00
39265;BME280;42646;51.910;7.724;2023-01-30T03:41:43;100704.16;;;5.11;100.00
39265;BME280;42646;51.910;7.724;2023-01-30T03:44:11;100676.72;;;5.13;100.00
39265;BME280;42646;51.910;7.724;2023-01-30T03:46:40;100685.28;;;5.17;100.00
39265;BME280;42646;51.910;7.724;2023-01-30T03:49:08;100670.84;;;5.22;100.00
39265;BME280;42646;51.910;7.724;2023-01-30T03:51:38;100681.16;;;5.25;100.00
39265;BME280;42646;51.910;7.724;2023-01-30T03:54:05;100671.88;;;5.20;100.00
39265;BME280;42646;51.910;7.724;2023-01-30T03:56:33;100670.00;;;5.22;100.00
39265;BME280;42646;51.910;7.724;2023-01-30T03:59:02;100676.31;;;5.32;100.00
39265;BME280;42646;51.910;7.724;2023-01-30T04:01:37;100659.88;;;5.28;100.00
39265;BME280;42646;51.910;7.724;2023-01-30T04:04:05;100663.53;;;5.26;100.00
39265;BME280;42646;51.910;7.724;2023-01-30T04:06:33;100657.72;;;5.33;100.00
39265;BME280;42646;51.910;7.724;2023-01-30T04:09:04;100662.16;;;5.33;100.00
39265;BME280;42646;51.910;7.724;2023-01-30T04:11:46;100661.25;;;5.34;100.00
39265;BME280;42646;51.910;7.724;2023-01-30T04:14:13;100648.97;;;5.33;100.00
39265;BME280;42646;51.910;7.724;2023-01-30T04:17:04;100649.50;;;5.38;100.00
39265;BME280;42646;51.910;7.724;2023-01-30T04:19:49;100655.63;;;5.51;100.00
39265;BME280;42646;51.910;7.724;2023-01-30T04:22:17;100663.34;;;5.54;100.00
39265;BME280;42646;51.910;7.724;2023-01-30T04:24:48;100654.06;;;5.49;100.00
39265;BME280;42646;51.910;7.724;2023-01-30T04:27:15;100657.22;;;5.41;100.00
39265;BME280;42646;51.910;7.724;2023-01-30T04:30:05;100655.13;;;5.46;100.00
39265;BME280;42646;51.910;7.724;2023-01-30T04:32:36;100657.97;;;5.56;100.00
39265;BME280;42646;51.910;7.724;2023-01-30T04:35:05;100649.44;;;5.52;100.00
39265;BME280;42646;51.910;7.724;2023-01-30T04:37:33;100646.03;;;5.50;100.00
39265;BME280;42646;51.910;7.724;2023-01-30T04:40:04;100648.59;;;5.52;100.00
39265;BME280;42646;51.910;7.724;2023-01-30T04:42:33;100637.59;;;5.58;100.00
39265;BME280;42646;51.910;7.724;2023-01-30T04:45:20;100640.97;;;5.47;100.00
39265;BME280;42646;51.910;7.724;2023-01-30T04:47:49;100647.63;;;5.53;100.00
39265;BME280;42646;51.910;7.724;2023-01-30T04:50:17;100643.31;;;5.52;100.00
39265;BME280;42646;51.910;7.724;2023-01-30T04:52:45;100642.53;;;5.50;100.00
39265;BME280;42646;51.910;7.724;2023-01-30T04:55:16;100641.28;;;5.55;100.00
39265;BME280;42646;51.910;7.724;2023-01-30T04:57:45;100634.44;;;5.53;100.00
39265;BME280;42646;51.910;7.724;2023-01-30T05:00:37;100640.75;;;5.63;100.00
39265;BME280;42646;51.910;7.724;2023-01-30T05:03:05;100634.13;;;5.57;100.00
39265;BME280;42646;51.910;7.724;2023-01-30T05:05:33;100628.09;;;5.55;100.00
39265;BME280;42646;51.910;7.724;2023-01-30T05:08:01;100635.88;;;5.57;100.00
39265;BME280;42646;51.910;7.724;2023-01-30T05:10:30;100624.91;;;5.63;100.00
39265;BME280;42646;51.910;7.724;2023-01-30T05:13:00;100612.06;;;5.58;100.00
39265;BME280;42646;51.910;7.724;2023-01-30T05:15:29;100602.66;;;5.54;100.00
39265;BME280;42646;51.910;7.724;2023-01-30T05:18:02;100607.81;;;5.56;100.00
39265;BME280;42646;51.910;7.724;2023-01-30T05:20:30;100603.28;;;5.71;100.00
39265;BME280;42646;51.910;7.724;2023-01-30T05:22:58;100607.31;;;5.63;100.00
39265;BME280;42646;51.910;7.724;2023-01-30T05:25:53;100619.44;;;5.53;100.00
39265;BME280;42646;51.910;7.724;2023-01-30T05:28:25;100614.56;;;5.60;100.00
39265;BME280;42646;51.910;7.724;2023-01-30T05:30:59;100624.78;;;5.77;100.00
39265;BME280;42646;51.910;7.724;2023-01-30T05:33:27;100620.34;;;5.78;100.00
39265;BME280;42646;51.910;7.724;2023-01-30T05:35:56;100630.38;;;5.73;100.00
39265;BME280;42646;51.910;7.724;2023-01-30T05:38:25;100640.22;;;5.71;100.00
39265;BME280;42646;51.910;7.724;2023-01-30T05:40:58;100649.09;;;5.70;100.00
39265;BME280;42646;51.910;7.724;2023-01-30T05:43:28;100638.63;;;5.68;100.00
39265;BME280;42646;51.910;7.724;2023-01-30T05:45:58;100632.81;;;5.63;100.00
39265;BME280;42646;51.910;7.724;2023-01-30T05:48:27;100633.56;;;5.65;100.00
39265;BME280;42646;51.910;7.724;2023-01-30T05:50:56;100626.19;;;5.70;100.00
39265;BME280;42646;51.910;7.724;2023-01-30T05:53:28;100628.59;;;5.73;100.00
39265;BME280;42646;51.910;7.724;2023-01-30T05:55:58;100625.53;;;5.79;100.00
39265;BME280;42646;51.910;7.724;2023-01-30T05:58:30;100631.56;;;5.81;100.00
39265;BME280;42646;51.910;7.724;2023-01-30T06:00:59;100618.69;;;5.77;100.00
39265;BME280;42646;51.910;7.724;2023-01-30T06:03:27;100620.25;;;5.79;100.00
39265;BME280;42646;51.910;7.724;2023-01-30T06:06:21;100622.69;;;5.82;100.00
39265;BME280;42646;51.910;7.724;2023-01-30T06:09:13;100624.56;;;5.80;100.00
39265;BME280;42646;51.910;7.724;2023-01-30T06:11:44;100627.13;;;5.82;100.00
39265;BME280;42646;51.910;7.724;2023-01-30T06:14:11;100625.00;;;5.87;100.00
39265;BME280;42646;51.910;7.724;2023-01-30T06:16:41;100635.56;;;5.87;100.00
39265;BME280;42646;51.910;7.724;2023-01-30T06:19:09;100636.50;;;5.86;100.00
39265;BME280;42646;51.910;7.724;2023-01-30T06:21:37;100627.63;;;5.87;100.00
39265;BME280;42646;51.910;7.724;2023-01-30T06:24:05;100631.97;;;5.88;100.00
39265;BME280;42646;51.910;7.724;2023-01-30T06:26:36;100634.28;;;5.93;100.00
39265;BME280;42646;51.910;7.724;2023-01-30T06:29:05;100629.75;;;5.95;100.00
39265;BME280;42646;51.910;7.724;2023-01-30T06:31:33;100630.47;;;5.97;100.00
39265;BME280;42646;51.910;7.724;2023-01-30T06:34:02;100636.59;;;5.97;100.00
39265;BME280;42646;51.910;7.724;2023-01-30T06:36:31;100652.25;;;6.00;100.00
39265;BME280;42646;51.910;7.724;2023-01-30T06:38:59;100689.22;;;6.00;100.00
39265;BME280;42646;51.910;7.724;2023-01-30T06:41:26;100671.97;;;6.07;100.00
39265;BME280;42646;51.910;7.724;2023-01-30T06:43:55;100675.25;;;5.98;100.00
39265;BME280;42646;51.910;7.724;2023-01-30T06:46:24;100667.13;;;6.01;100.00
39265;BME280;42646;51.910;7.724;2023-01-30T06:48:55;100684.00;;;5.86;100.00
39265;BME280;42646;51.910;7.724;2023-01-30T06:51:23;100680.13;;;5.79;100.00
39265;BME280;42646;51.910;7.724;2023-01-30T06:53:53;100689.09;;;5.76;100.00
39265;BME280;42646;51.910;7.724;2023-01-30T06:56:22;100693.75;;;5.73;100.00
39265;BME280;42646;51.910;7.724;2023-01-30T06:58:51;100689.00;;;5.65;100.00
39265;BME280;42646;51.910;7.724;2023-01-30T07:01:18;100691.41;;;5.55;100.00
39265;BME280;42646;51.910;7.724;2023-01-30T07:03:48;100680.31;;;5.50;100.00
39265;BME280;42646;51.910;7.724;2023-01-30T07:06:15;100684.16;;;5.46;100.00
39265;BME280;42646;51.910;7.724;2023-01-30T07:08:44;100674.63;;;5.44;100.00
39265;BME280;42646;51.910;7.724;2023-01-30T07:11:13;100677.38;;;5.42;100.00
39265;BME280;42646;51.910;7.724;2023-01-30T07:13:40;100676.00;;;5.36;100.00
39265;BME280;42646;51.910;7.724;2023-01-30T07:16:08;100678.22;;;5.30;100.00
39265;BME280;42646;51.910;7.724;2023-01-30T07:18:35;100674.09;;;5.26;100.00
39265;BME280;42646;51.910;7.724;2023-01-30T07:21:06;100681.03;;;5.27;100.00
39265;BME280;42646;51.910;7.724;2023-01-30T07:23:34;100680.09;;;5.15;100.00
39265;BME280;42646;51.910;7.724;2023-01-30T07:26:03;100690.56;;;5.17;100.00
39265;BME280;42646;51.910;7.724;2023-01-30T07:28:31;100682.53;;;5.18;100.00
39265;BME280;42646;51.910;7.724;2023-01-30T07:30:59;100676.81;;;5.12;100.00
39265;BME280;42646;51.910;7.724;2023-01-30T07:33:27;100685.34;;;5.15;100.00
39265;BME280;42646;51.910;7.724;2023-01-30T07:35:59;100701.19;;;5.15;100.00
39265;BME280;42646;51.910;7.724;2023-01-30T07:38:28;100715.13;;;5.17;100.00
39265;BME280;42646;51.910;7.724;2023-01-30T07:40:56;100719.84;;;5.12;100.00
39265;BME280;42646;51.910;7.724;2023-01-30T07:43:25;100723.22;;;5.14;100.00
39265;BME280;42646;51.910;7.724;2023-01-30T07:45:53;100719.75;;;5.14;100.00
39265;BME280;42646;51.910;7.724;2023-01-30T07:48:45;100720.47;;;5.16;100.00
39265;BME280;42646;51.910;7.724;2023-01-30T07:51:14;100717.84;;;5.16;100.00
39265;BME280;42646;51.910;7.724;2023-01-30T07:53:43;100717.09;;;5.14;100.00
39265;BME280;42646;51.910;7.724;2023-01-30T07:56:12;100711.31;;;5.21;100.00
39265;BME280;42646;51.910;7.724;2023-01-30T07:58:44;100721.44;;;5.27;100.00
39265;BME280;42646;51.910;7.724;2023-01-30T08:01:12;100716.22;;;5.40;100.00
39265;BME280;42646;51.910;7.724;2023-01-30T08:03:40;100733.31;;;5.34;100.00
39265;BME280;42646;51.910;7.724;2023-01-30T08:06:10;100739.22;;;5.38;100.00
39265;BME280;42646;51.910;7.724;2023-01-30T08:08:39;100737.09;;;5.43;100.00
39265;BME280;42646;51.910;7.724;2023-01-30T08:11:08;100727.94;;;5.49;100.00
39265;BME280;42646;51.910;7.724;2023-01-30T08:13:37;100719.91;;;5.50;100.00
39265;BME280;42646;51.910;7.724;2023-01-30T08:16:06;100731.94;;;5.54;100.00
39265;BME280;42646;51.910;7.724;2023-01-30T08:18:35;100730.81;;;5.58;100.00
39265;BME280;42646;51.910;7.724;2023-01-30T08:21:04;100725.09;;;5.52;100.00
39265;BME280;42646;51.910;7.724;2023-01-30T08:23:32;100731.00;;;5.55;100.00
39265;BME280;42646;51.910;7.724;2023-01-30T08:26:02;100730.69;;;5.60;100.00
39265;BME280;42646;51.910;7.724;2023-01-30T08:28:33;100728.06;;;5.60;100.00
39265;BME280;42646;51.910;7.724;2023-01-30T08:31:02;100745.56;;;5.61;100.00
39265;BME280;42646;51.910;7.724;2023-01-30T08:33:29;100745.78;;;5.58;100.00
39265;BME280;42646;51.910;7.724;2023-01-30T08:35:57;100753.19;;;5.53;100.00
39265;BME280;42646;51.910;7.724;2023-01-30T08:38:33;100752.88;;;5.57;100.00
39265;BME280;42646;51.910;7.724;2023-01-30T08:41:03;100772.50;;;5.53;100.00
39265;BME280;42646;51.910;7.724;2023-01-30T08:43:38;100746.09;;;5.53;100.00
39265;BME280;42646;51.910;7.724;2023-01-30T08:46:05;100728.34;;;5.55;100.00
39265;BME280;42646;51.910;7.724;2023-01-30T08:48:34;100743.88;;;5.60;100.00
39265;BME280;42646;51.910;7.724;2023-01-30T08:51:15;100741.13;;;5.61;100.00
39265;BME280;42646;51.910;7.724;2023-01-30T08:53:45;100742.81;;;5.62;100.00
39265;BME280;42646;51.910;7.724;2023-01-30T08:56:14;100739.44;;;5.60;100.00
39265;BME280;42646;51.910;7.724;2023-01-30T08:58:43;100738.31;;;5.65;100.00
39265;BME280;42646;51.910;7.724;2023-01-30T09:01:12;100742.22;;;5.72;100.00
39265;BME280;42646;51.910;7.724;2023-01-30T09:03:40;100746.75;;;5.70;100.00
39265;BME280;42646;51.910;7.724;2023-01-30T09:06:33;100749.41;;;5.70;100.00
39265;BME280;42646;51.910;7.724;2023-01-30T09:09:02;100748.75;;;5.79;100.00
39265;BME280;42646;51.910;7.724;2023-01-30T09:11:30;100739.69;;;5.83;100.00
39265;BME280;42646;51.910;7.724;2023-01-30T09:13:59;100752.75;;;5.84;100.00
39265;BME280;42646;51.910;7.724;2023-01-30T09:16:52;100742.66;;;5.91;100.00
39265;BME280;42646;51.910;7.724;2023-01-30T09:19:22;100731.53;;;5.86;100.00
39265;BME280;42646;51.910;7.724;2023-01-30T09:21:50;100736.19;;;5.82;100.00
39265;BME280;42646;51.910;7.724;2023-01-30T09:24:19;100745.09;;;5.94;100.00
39265;BME280;42646;51.910;7.724;2023-01-30T09:26:53;100728.06;;;5.98;100.00
39265;BME280;42646;51.910;7.724;2023-01-30T09:29:24;100740.53;;;5.96;100.00
39265;BME280;42646;51.910;7.724;2023-01-30T09:31:53;100758.06;;;5.97;100.00
39265;BME280;42646;51.910;7.724;2023-01-30T09:34:21;100734.72;;;5.91;100.00
39265;BME280;42646;51.910;7.724;2023-01-30T09:36:53;100757.22;;;6.09;100.00
39265;BME280;42646;51.910;7.724;2023-01-30T09:39:22;100769.28;;;6.01;100.00
39265;BME280;42646;51.910;7.724;2023-01-30T09:42:04;100765.06;;;6.11;100.00
39265;BME280;42646;51.910;7.724;2023-01-30T09:44:56;100763.25;;;6.11;100.00
39265;BME280;42646;51.910;7.724;2023-01-30T09:47:33;100769.25;;;6.13;100.00
39265;BME280;42646;51.910;7.724;2023-01-30T09:50:18;100768.19;;;6.16;100.00
39265;BME280;42646;51.910;7.724;2023-01-30T09:53:15;100760.19;;;6.05;100.00
39265;BME280;42646;51.910;7.724;2023-01-30T09:56:10;100766.81;;;6.10;100.00
39265;BME280;42646;51.910;7.724;2023-01-30T09:58:43;100758.16;;;6.08;100.00
39265;BME280;42646;51.910;7.724;2023-01-30T10:01:21;100764.50;;;6.19;100.00
39265;BME280;42646;51.910;7.724;2023-01-30T10:04:23;100776.66;;;6.21;100.00
39265;BME280;42646;51.910;7.724;2023-01-30T10:06:58;100771.16;;;6.24;100.00
39265;BME280;42646;51.910;7.724;2023-01-30T10:09:33;100781.81;;;6.35;100.00
39265;BME280;42646;51.910;7.724;2023-01-30T10:12:24;100774.31;;;6.42;100.00
39265;BME280;42646;51.910;7.724;2023-01-30T10:15:15;100772.63;;;6.41;100.00
39265;BME280;42646;51.910;7.724;2023-01-30T10:18:00;100780.03;;;6.36;100.00
39265;BME280;42646;51.910;7.724;2023-01-30T10:20:42;100780.09;;;6.34;100.00
39265;BME280;42646;51.910;7.724;2023-01-30T10:23:24;100787.84;;;6.37;100.00
39265;BME280;42646;51.910;7.724;2023-01-30T10:25:56;100792.16;;;6.38;100.00
39265;BME280;42646;51.910;7.724;2023-01-30T10:28:31;100785.47;;;6.58;100.00
39265;BME280;42646;51.910;7.724;2023-01-30T10:31:03;100780.19;;;6.46;100.00
39265;BME280;42646;51.910;7.724;2023-01-30T10:33:38;100774.91;;;6.46;100.00
39265;BME280;42646;51.910;7.724;2023-01-30T10:36:13;100772.19;;;6.34;100.00
39265;BME280;42646;51.910;7.724;2023-01-30T10:38:45;100771.44;;;6.32;100.00
39265;BME280;42646;51.910;7.724;2023-01-30T10:41:22;100776.75;;;6.20;100.00
39265;BME280;42646;51.910;7.724;2023-01-30T10:43:57;100772.44;;;6.19;100.00
39265;BME280;42646;51.910;7.724;2023-01-30T10:46:38;100778.75;;;6.16;100.00
39265;BME280;42646;51.910;7.724;2023-01-30T10:49:18;100773.28;;;6.19;100.00
39265;BME280;42646;51.910;7.724;2023-01-30T10:51:56;100782.03;;;6.20;100.00
39265;BME280;42646;51.910;7.724;2023-01-30T10:54:34;100780.66;;;6.27;100.00
39265;BME280;42646;51.910;7.724;2023-01-30T10:57:14;100778.25;;;6.24;100.00
39265;BME280;42646;51.910;7.724;2023-01-30T10:59:52;100784.38;;;6.24;100.00
39265;BME280;42646;51.910;7.724;2023-01-30T11:02:24;100793.75;;;6.28;100.00
39265;BME280;42646;51.910;7.724;2023-01-30T11:04:58;100801.34;;;6.33;100.00
39265;BME280;42646;51.910;7.724;2023-01-30T11:07:29;100789.84;;;6.34;100.00
39265;BME280;42646;51.910;7.724;2023-01-30T11:09:59;100790.19;;;6.29;100.00
39265;BME280;42646;51.910;7.724;2023-01-30T11:12:27;100791.75;;;6.19;100.00
39265;BME280;42646;51.910;7.724;2023-01-30T11:14:58;100793.66;;;6.30;100.00
39265;BME280;42646;51.910;7.724;2023-01-30T11:17:32;100798.19;;;6.15;100.00
39265;BME280;42646;51.910;7.724;2023-01-30T11:20:10;100806.25;;;6.13;100.00
39265;BME280;42646;51.910;7.724;2023-01-30T11:22:45;100801.38;;;6.20;100.00
39265;BME280;42646;51.910;7.724;2023-01-30T11:25:16;100800.00;;;6.27;100.00
39265;BME280;42646;51.910;7.724;2023-01-30T11:27:53;100791.88;;;6.30;100.00
39265;BME280;42646;51.910;7.724;2023-01-30T11:30:27;100785.72;;;6.42;100.00
39265;BME280;42646;51.910;7.724;2023-01-30T11:33:07;100787.41;;;6.31;100.00
39265;BME280;42646;51.910;7.724;2023-01-30T11:35:43;100785.91;;;6.39;99.07
39265;BME280;42646;51.910;7.724;2023-01-30T11:38:25;100781.81;;;6.35;99.21
39265;BME280;42646;51.910;7.724;2023-01-30T11:41:09;100787.41;;;6.31;99.78
39265;BME280;42646;51.910;7.724;2023-01-30T11:43:42;100781.91;;;6.47;98.97
39265;BME280;42646;51.910;7.724;2023-01-30T11:46:13;100784.44;;;6.48;98.16
39265;BME280;42646;51.910;7.724;2023-01-30T11:48:47;100790.88;;;6.44;94.27
39265;BME280;42646;51.910;7.724;2023-01-30T11:51:42;100790.13;;;6.55;94.46
39265;BME280;42646;51.910;7.724;2023-01-30T11:54:16;100786.31;;;6.46;93.85
39265;BME280;42646;51.910;7.724;2023-01-30T11:56:50;100787.06;;;6.48;95.70
39265;BME280;42646;51.910;7.724;2023-01-30T11:59:24;100789.81;;;6.59;93.13
39265;BME280;42646;51.910;7.724;2023-01-30T12:02:02;100779.00;;;6.62;91.31
39265;BME280;42646;51.910;7.724;2023-01-30T12:04:33;100785.75;;;6.66;92.15
39265;BME280;42646;51.910;7.724;2023-01-30T12:07:13;100786.81;;;6.64;89.82
39265;BME280;42646;51.910;7.724;2023-01-30T12:09:44;100782.44;;;6.76;89.77
39265;BME280;42646;51.910;7.724;2023-01-30T12:12:29;100781.59;;;6.75;88.39
39265;BME280;42646;51.910;7.724;2023-01-30T12:15:19;100778.03;;;6.76;88.11
39265;BME280;42646;51.910;7.724;2023-01-30T12:17:57;100785.16;;;6.87;87.26
39265;BME280;42646;51.910;7.724;2023-01-30T12:20:42;100776.50;;;6.85;87.08
39265;BME280;42646;51.910;7.724;2023-01-30T12:23:16;100771.41;;;6.82;87.31
39265;BME280;42646;51.910;7.724;2023-01-30T12:25:55;100786.22;;;6.84;87.69
39265;BME280;42646;51.910;7.724;2023-01-30T12:28:33;100801.78;;;6.89;87.39
39265;BME280;42646;51.910;7.724;2023-01-30T12:31:08;100788.50;;;7.02;86.91
39265;BME280;42646;51.910;7.724;2023-01-30T12:33:39;100799.66;;;6.94;85.89
39265;BME280;42646;51.910;7.724;2023-01-30T12:36:15;100799.47;;;6.84;85.63
39265;BME280;42646;51.910;7.724;2023-01-30T12:39:05;100800.56;;;6.93;85.54
39265;BME280;42646;51.910;7.724;2023-01-30T12:41:55;100797.16;;;7.04;85.69
39265;BME280;42646;51.910;7.724;2023-01-30T12:44:42;100811.16;;;6.93;85.52
39265;BME280;42646;51.910;7.724;2023-01-30T12:47:37;100810.63;;;7.01;86.52
39265;BME280;42646;51.910;7.724;2023-01-30T12:50:28;100788.25;;;7.05;86.81
39265;BME280;42646;51.910;7.724;2023-01-30T12:53:30;100791.59;;;6.95;87.96
39265;BME280;42646;51.910;7.724;2023-01-30T12:56:20;100799.88;;;7.15;87.34
39265;BME280;42646;51.910;7.724;2023-01-30T12:59:00;100796.31;;;7.03;87.19
39265;BME280;42646;51.910;7.724;2023-01-30T13:01:39;100795.16;;;7.07;85.90
39265;BME280;42646;51.910;7.724;2023-01-30T13:04:18;100808.88;;;7.12;86.77
39265;BME280;42646;51.910;7.724;2023-01-30T13:06:58;100811.56;;;7.00;87.17
39265;BME280;42646;51.910;7.724;2023-01-30T13:09:37;100814.56;;;7.19;84.23
39265;BME280;42646;51.910;7.724;2023-01-30T13:12:13;100814.50;;;7.08;85.37
39265;BME280;42646;51.910;7.724;2023-01-30T13:14:47;100804.88;;;7.07;85.31
39265;BME280;42646;51.910;7.724;2023-01-30T13:17:36;100811.06;;;7.18;85.94
39265;BME280;42646;51.910;7.724;2023-01-30T13:20:17;100811.84;;;7.32;84.73
39265;BME280;42646;51.910;7.724;2023-01-30T13:22:53;100810.78;;;7.34;83.07
39265;BME280;42646;51.910;7.724;2023-01-30T13:25:28;100815.69;;;7.28;83.35